createdAt,value
2024-02-08T00:00:56.924Z,80.73
2024-02-08T00:03:26.218Z,80.81
2024-02-08T00:05:53.976Z,80.40
2024-02-08T00:08:21.819Z,80.43
2024-02-08T00:10:49.665Z,81.16
2024-02-08T00:13:19.009Z,81.53
2024-02-08T00:15:47.468Z,81.77
2024-02-08T00:18:16.714Z,81.85
2024-02-08T00:20:46.128Z,82.05
2024-02-08T00:23:15.353Z,82.13
2024-02-08T00:25:43.166Z,81.40
2024-02-08T00:28:12.844Z,82.23
2024-02-08T00:30:41.511Z,82.43
2024-02-08T00:33:09.773Z,82.49
2024-02-08T00:35:37.983Z,83.68
2024-02-08T00:38:07.297Z,83.79
2024-02-08T00:40:35.174Z,83.71
2024-02-08T00:43:07.155Z,84.03
2024-02-08T00:45:35.048Z,83.71
2024-02-08T00:48:05.578Z,84.41
2024-02-08T00:50:33.542Z,83.35
2024-02-08T00:53:04.889Z,83.97
2024-02-08T00:55:34.937Z,83.75
2024-02-08T00:58:03.514Z,83.84
2024-02-08T01:00:38.754Z,84.36
2024-02-08T01:03:08.173Z,84.11
2024-02-08T01:05:36.102Z,84.17
2024-02-08T01:08:04.654Z,85.16
2024-02-08T01:10:34.099Z,85.08
2024-02-08T01:13:01.895Z,84.88
2024-02-08T01:15:29.960Z,85.14
2024-02-08T01:17:57.924Z,84.98
2024-02-08T01:20:29.473Z,85.23
2024-02-08T01:22:58.887Z,85.21
2024-02-08T01:25:26.744Z,84.98
2024-02-08T01:27:56.437Z,84.50
2024-02-08T01:30:25.590Z,84.80
2024-02-08T01:32:54.963Z,85.78
2024-02-08T01:35:24.556Z,84.95
2024-02-08T01:37:52.662Z,85.84
2024-02-08T01:40:20.520Z,85.13
2024-02-08T01:42:48.697Z,85.01
2024-02-08T01:45:35.947Z,84.77
2024-02-08T01:48:05.137Z,85.00
2024-02-08T01:50:37.551Z,85.25
2024-02-08T01:53:07.656Z,84.36
2024-02-08T01:55:36.793Z,85.16
2024-02-08T01:58:06.880Z,84.55
2024-02-08T02:00:38.665Z,83.91
2024-02-08T02:03:10.889Z,84.06
2024-02-08T02:05:42.752Z,83.96
2024-02-08T02:08:11.657Z,83.86
2024-02-08T02:10:40.152Z,84.04
2024-02-08T02:13:10.472Z,83.32
2024-02-08T02:15:39.972Z,82.83
2024-02-08T02:18:11.135Z,83.31
2024-02-08T02:20:39.694Z,82.91
2024-02-08T02:23:10.913Z,82.84
2024-02-08T02:25:40.942Z,83.16
2024-02-08T02:28:11.082Z,81.94
2024-02-08T02:30:39.734Z,83.07
2024-02-08T02:33:08.293Z,82.06
2024-02-08T02:35:36.775Z,83.06
2024-02-08T02:38:05.027Z,83.40
2024-02-08T02:40:35.365Z,82.82
2024-02-08T02:43:11.013Z,83.88
2024-02-08T02:45:39.133Z,83.23
2024-02-08T02:48:08.971Z,83.23
2024-02-08T02:50:43.178Z,82.76
2024-02-08T02:53:11.992Z,82.46
2024-02-08T02:55:42.477Z,82.32
2024-02-08T02:58:10.483Z,82.72
2024-02-08T03:00:38.944Z,82.94
2024-02-08T03:03:09.693Z,82.25
2024-02-08T03:05:39.031Z,82.41
2024-02-08T03:08:07.631Z,82.55
2024-02-08T03:10:39.046Z,82.84
2024-02-08T03:13:11.380Z,82.89
2024-02-08T03:15:39.214Z,82.49
2024-02-08T03:18:08.740Z,82.09
2024-02-08T03:20:37.605Z,81.88
2024-02-08T03:23:06.279Z,82.26
2024-02-08T03:25:42.563Z,82.79
2024-02-08T03:28:12.442Z,82.86
2024-02-08T03:30:41.327Z,81.87
2024-02-08T03:33:17.545Z,82.06
2024-02-08T03:35:47.435Z,82.25
2024-02-08T03:38:16.199Z,82.13
2024-02-08T03:40:44.357Z,82.38
2024-02-08T03:43:17.159Z,81.76
2024-02-08T03:45:48.262Z,81.63
2024-02-08T03:48:16.588Z,81.61
2024-02-08T03:50:45.992Z,81.40
2024-02-08T03:53:14.853Z,81.91
2024-02-08T03:55:45.117Z,81.75
2024-02-08T03:58:15.779Z,81.08
2024-02-08T04:00:46.590Z,81.44
2024-02-08T04:03:24.500Z,80.87
2024-02-08T04:06:01.660Z,81.34
2024-02-08T04:09:05.194Z,80.92
2024-02-08T04:11:50.736Z,81.21
2024-02-08T04:14:37.183Z,80.77
2024-02-08T04:17:23.171Z,81.21
2024-02-08T04:20:08.980Z,80.63
2024-02-08T04:22:54.215Z,81.31
2024-02-08T04:25:39.936Z,81.12
2024-02-08T04:28:26.919Z,80.68
2024-02-08T04:31:13.723Z,81.37
2024-02-08T04:33:59.424Z,81.22
2024-02-08T04:36:44.586Z,80.98
2024-02-08T04:39:30.090Z,81.69
2024-02-08T04:42:15.586Z,81.63
2024-02-08T04:45:01.034Z,81.48
2024-02-08T04:47:59.189Z,80.74
2024-02-08T04:50:44.489Z,81.40
2024-02-08T04:53:30.147Z,81.15
2024-02-08T04:55:58.078Z,81.09
2024-02-08T04:58:48.037Z,81.39
2024-02-08T05:01:16.184Z,81.26
2024-02-08T05:03:46.288Z,81.52
2024-02-08T05:06:19.895Z,81.43
2024-02-08T05:08:48.965Z,81.05
2024-02-08T05:11:18.005Z,80.34
2024-02-08T05:13:51.301Z,80.34
2024-02-08T05:16:21.041Z,81.21
2024-02-08T05:18:50.693Z,81.20
2024-02-08T05:21:19.648Z,80.81
2024-02-08T05:23:49.132Z,80.12
2024-02-08T05:26:20.004Z,79.99
2024-02-08T05:28:48.497Z,80.34
2024-02-08T05:31:17.725Z,80.26
2024-02-08T05:33:45.617Z,80.45
2024-02-08T05:36:37.909Z,80.21
2024-02-08T05:39:05.735Z,80.21
2024-02-08T05:41:34.381Z,80.72
2024-02-08T05:44:06.257Z,80.75
2024-02-08T05:46:47.248Z,80.92
2024-02-08T05:49:16.516Z,80.59
2024-02-08T05:51:53.931Z,80.73
2024-02-08T05:54:33.242Z,80.08
2024-02-08T05:57:06.615Z,80.07
2024-02-08T05:59:40.380Z,79.44
2024-02-08T06:02:15.987Z,80.81
2024-02-08T06:04:52.601Z,80.46
2024-02-08T06:07:24.273Z,80.29
2024-02-08T06:10:08.931Z,79.56
2024-02-08T06:12:48.308Z,79.46
2024-02-08T06:15:26.682Z,80.29
2024-02-08T06:18:05.265Z,79.98
2024-02-08T06:20:42.799Z,78.70
2024-02-08T06:23:26.313Z,78.80
2024-02-08T06:26:12.271Z,78.66
2024-02-08T06:28:42.715Z,78.47
2024-02-08T06:31:09.909Z,78.95
2024-02-08T06:33:44.203Z,78.43
2024-02-08T06:36:11.209Z,79.09
2024-02-08T06:38:52.412Z,78.51
2024-02-08T06:41:25.420Z,78.32
2024-02-08T06:44:24.556Z,79.08
2024-02-08T06:46:57.921Z,78.50
2024-02-08T06:49:43.436Z,79.13
2024-02-08T06:52:28.959Z,79.08
2024-02-08T06:55:15.934Z,79.10
2024-02-08T06:58:01.588Z,79.83
2024-02-08T07:00:47.041Z,79.94
2024-02-08T07:03:32.662Z,79.30
2024-02-08T07:06:18.181Z,80.12
2024-02-08T07:09:03.609Z,79.44
2024-02-08T07:11:50.426Z,79.49
2024-02-08T07:14:35.834Z,79.48
2024-02-08T07:17:21.121Z,78.75
2024-02-08T07:20:06.673Z,79.16
2024-02-08T07:22:51.826Z,79.45
2024-02-08T07:25:37.422Z,79.56
2024-02-08T07:28:24.531Z,79.11
2024-02-08T07:31:14.967Z,78.72
2024-02-08T07:34:05.724Z,78.98
2024-02-08T07:36:51.547Z,79.80
2024-02-08T07:39:36.272Z,79.45
2024-02-08T07:42:14.038Z,79.57
2024-02-08T07:44:49.565Z,79.11
2024-02-08T07:47:25.521Z,78.59
2024-02-08T07:49:59.232Z,78.52
2024-02-08T07:52:27.423Z,79.14
2024-02-08T07:55:15.613Z,79.29
2024-02-08T07:57:52.240Z,79.02
2024-02-08T08:00:42.986Z,79.00
2024-02-08T08:03:17.075Z,79.24
2024-02-08T08:05:52.391Z,79.82
2024-02-08T08:08:27.532Z,79.34
2024-02-08T08:11:03.826Z,78.88
2024-02-08T08:13:49.798Z,78.72
2024-02-08T08:16:36.659Z,78.68
2024-02-08T08:19:10.547Z,78.22
2024-02-08T08:22:05.214Z,78.04
2024-02-08T08:24:52.509Z,77.97
2024-02-08T08:27:28.512Z,77.98
2024-02-08T08:29:59.766Z,77.59
2024-02-08T08:32:54.995Z,77.71
2024-02-08T08:35:40.632Z,77.57
2024-02-08T08:38:35.869Z,77.69
2024-02-08T08:41:08.237Z,76.66
2024-02-08T08:43:38.688Z,76.18
2024-02-08T08:46:11.958Z,76.29
2024-02-08T08:48:47.962Z,75.78
2024-02-08T08:51:15.841Z,75.51
2024-02-08T08:53:48.633Z,75.05
2024-02-08T08:56:16.421Z,75.63
2024-02-08T08:58:51.150Z,75.92
2024-02-08T09:01:20.831Z,75.12
2024-02-08T09:03:57.841Z,75.27
2024-02-08T09:06:27.621Z,74.88
2024-02-08T09:08:57.105Z,75.20
2024-02-08T09:11:26.013Z,74.70
2024-02-08T09:13:54.629Z,75.74
2024-02-08T09:16:31.226Z,75.57
2024-02-08T09:19:06.858Z,75.66
2024-02-08T09:21:36.880Z,75.51
2024-02-08T09:24:07.318Z,75.55
2024-02-08T09:26:49.667Z,74.85
2024-02-08T09:29:27.600Z,74.32
2024-02-08T09:31:59.978Z,73.16
2024-02-08T09:34:41.028Z,72.48
2024-02-08T09:37:11.162Z,72.74
2024-02-08T09:39:59.651Z,73.48
2024-02-08T09:42:30.412Z,73.17
2024-02-08T09:45:14.904Z,72.79
2024-02-08T09:47:48.421Z,72.01
2024-02-08T09:50:22.630Z,72.69
2024-02-08T09:53:01.119Z,73.50
2024-02-08T09:55:33.501Z,73.78
2024-02-08T09:58:05.643Z,74.70
2024-02-08T10:00:55.951Z,73.61
2024-02-08T10:03:33.488Z,73.13
2024-02-08T10:06:13.760Z,72.87
2024-02-08T10:08:52.361Z,72.39
2024-02-08T10:11:37.305Z,71.58
2024-02-08T10:14:07.503Z,71.19
2024-02-08T10:16:44.536Z,71.13
2024-02-08T10:19:29.335Z,70.36
2024-02-08T10:22:01.811Z,70.54
2024-02-08T10:24:46.004Z,70.13
2024-02-08T10:27:21.606Z,69.87
2024-02-08T10:29:57.679Z,70.52
2024-02-08T10:32:28.670Z,67.37
2024-02-08T10:35:15.197Z,66.24
2024-02-08T10:37:50.300Z,66.23
2024-02-08T10:40:31.880Z,66.06
2024-02-08T10:43:01.332Z,67.01
2024-02-08T10:45:45.010Z,66.80
2024-02-08T10:48:15.022Z,66.89
2024-02-08T10:50:44.048Z,66.97
2024-02-08T10:53:17.771Z,66.66
2024-02-08T10:55:53.800Z,65.89
2024-02-08T10:58:22.635Z,65.87
2024-02-08T11:03:55.199Z,64.41
2024-02-08T11:06:32.513Z,63.34
2024-02-08T11:09:18.884Z,63.81
2024-02-08T11:11:52.987Z,64.88
2024-02-08T11:14:22.770Z,63.52
2024-02-08T11:16:53.860Z,62.80
2024-02-08T11:19:23.865Z,62.29
2024-02-08T11:21:53.010Z,62.51
2024-02-08T11:24:39.461Z,63.31
2024-02-08T11:27:07.624Z,64.40
2024-02-08T11:29:46.628Z,64.08
2024-02-08T11:32:18.043Z,63.95
2024-02-08T11:34:48.369Z,64.19
2024-02-08T11:37:19.235Z,62.76
2024-02-08T11:39:49.175Z,65.03
2024-02-08T11:42:19.348Z,64.01
2024-02-08T11:44:47.736Z,66.28
2024-02-08T11:47:24.352Z,66.81
2024-02-08T11:49:55.309Z,65.98
2024-02-08T11:52:25.016Z,67.24
2024-02-08T11:55:07.247Z,66.89
2024-02-08T11:57:39.043Z,67.95
2024-02-08T12:00:18.141Z,68.10
2024-02-08T12:02:48.756Z,67.32
2024-02-08T12:05:22.527Z,68.31
2024-02-08T12:07:51.280Z,67.67
2024-02-08T12:10:23.399Z,67.95
2024-02-08T12:12:54.511Z,68.22
2024-02-08T12:15:23.843Z,67.81
2024-02-08T12:17:54.097Z,68.50
2024-02-08T12:20:24.826Z,68.25
2024-02-08T12:22:56.431Z,67.59
2024-02-08T12:25:28.747Z,66.68
2024-02-08T12:28:03.215Z,67.04
2024-02-08T12:30:35.331Z,65.61
2024-02-08T12:33:09.342Z,65.13
2024-02-08T12:35:42.640Z,66.50
2024-02-08T12:38:13.205Z,66.84
2024-02-08T12:40:41.847Z,66.55
2024-02-08T12:43:10.490Z,65.59
2024-02-08T12:45:39.268Z,64.17
2024-02-08T12:48:09.966Z,65.62
2024-02-08T12:50:42.109Z,65.76
2024-02-08T12:53:14.762Z,65.29
2024-02-08T12:55:43.186Z,64.54
2024-02-08T12:58:14.803Z,65.41
2024-02-08T13:00:46.503Z,64.37
2024-02-08T13:03:17.787Z,64.71
2024-02-08T13:05:47.121Z,64.60
2024-02-08T13:08:22.298Z,64.79
2024-02-08T13:10:56.988Z,65.86
2024-02-08T13:13:26.013Z,65.12
2024-02-08T13:16:00.231Z,64.82
2024-02-08T13:18:31.869Z,64.77
2024-02-08T13:21:02.170Z,64.31
2024-02-08T13:23:29.899Z,64.02
2024-02-08T13:25:59.370Z,64.22
2024-02-08T13:28:27.499Z,63.72
2024-02-08T13:30:57.317Z,63.79
2024-02-08T13:33:25.562Z,64.14
2024-02-08T13:35:54.028Z,64.49
2024-02-08T13:38:24.306Z,64.10
2024-02-08T13:40:54.326Z,63.77
2024-02-08T13:43:22.422Z,63.83
2024-02-08T13:45:55.930Z,64.09
2024-02-08T13:48:26.606Z,64.88
2024-02-08T13:50:57.052Z,64.00
2024-02-08T13:53:29.493Z,64.26
2024-02-08T13:55:59.522Z,63.62
2024-02-08T13:58:29.766Z,63.75
2024-02-08T14:00:59.550Z,63.32
2024-02-08T14:03:30.661Z,63.58
2024-02-08T14:06:01.814Z,63.70
2024-02-08T14:08:32.233Z,64.65
2024-02-08T14:11:00.750Z,64.55
2024-02-08T14:13:36.484Z,64.73
2024-02-08T14:16:17.882Z,65.63
2024-02-08T14:18:51.792Z,64.62
2024-02-08T14:21:26.754Z,63.93
2024-02-08T14:24:01.792Z,64.13
2024-02-08T14:26:38.942Z,64.48
2024-02-08T14:29:08.814Z,64.69
2024-02-08T14:31:39.392Z,64.22
2024-02-08T14:34:10.484Z,64.74
2024-02-08T14:36:43.354Z,64.29
2024-02-08T14:39:29.066Z,64.73
2024-02-08T14:41:58.130Z,64.30
2024-02-08T14:44:32.851Z,64.06
2024-02-08T14:47:01.295Z,63.76
2024-02-08T14:49:31.109Z,63.21
2024-02-08T14:52:03.059Z,63.08
2024-02-08T14:54:33.284Z,63.25
2024-02-08T14:57:40.465Z,61.79
2024-02-08T15:03:50.595Z,62.82
2024-02-08T15:06:32.413Z,62.44
2024-02-08T15:09:28.344Z,63.56
2024-02-08T15:12:01.756Z,63.04
2024-02-08T15:14:36.996Z,62.94
2024-02-08T15:17:08.948Z,64.46
2024-02-08T15:19:46.409Z,64.00
2024-02-08T15:22:36.778Z,63.17
2024-02-08T15:25:05.743Z,63.79
2024-02-08T15:27:49.557Z,64.15
2024-02-08T15:30:19.438Z,62.97
2024-02-08T15:32:48.175Z,63.73
2024-02-08T15:35:27.555Z,64.55
2024-02-08T15:38:20.339Z,65.77
2024-02-08T15:40:48.891Z,66.07
2024-02-08T15:43:17.571Z,67.20
2024-02-08T15:45:45.818Z,68.23
2024-02-08T15:48:19.286Z,68.42
2024-02-08T15:50:47.827Z,68.55
2024-02-08T15:53:19.148Z,68.92
2024-02-08T15:55:57.630Z,68.67
2024-02-08T15:58:30.774Z,69.27
2024-02-08T16:01:12.739Z,70.44
2024-02-08T16:03:54.679Z,70.28
2024-02-08T16:06:42.035Z,69.14
2024-02-08T16:09:26.069Z,69.15
2024-02-08T16:12:01.193Z,69.37
2024-02-08T16:14:43.206Z,70.20
2024-02-08T16:17:31.822Z,69.42
2024-02-08T16:20:07.363Z,69.59
2024-02-08T16:22:48.793Z,69.56
2024-02-08T16:25:20.923Z,69.63
2024-02-08T16:27:50.280Z,70.00
2024-02-08T16:30:29.734Z,69.53
2024-02-08T16:32:58.190Z,70.05
2024-02-08T16:35:42.256Z,71.19
2024-02-08T16:38:10.487Z,70.07
2024-02-08T16:40:45.796Z,69.74
2024-02-08T16:43:15.061Z,69.96
2024-02-08T16:45:49.601Z,70.33
2024-02-08T16:48:24.979Z,70.56
2024-02-08T16:50:58.497Z,71.10
2024-02-08T16:53:27.943Z,70.47
2024-02-08T16:55:59.968Z,70.61
2024-02-08T16:58:33.624Z,71.83
2024-02-08T17:01:20.172Z,72.34
2024-02-08T17:04:17.965Z,72.84
2024-02-08T17:06:55.510Z,72.93
2024-02-08T17:09:26.549Z,67.14
2024-02-08T17:12:11.478Z,68.48
2024-02-08T17:14:47.897Z,69.59
2024-02-08T17:17:25.968Z,70.63
2024-02-08T17:19:59.599Z,71.34
2024-02-08T17:22:42.163Z,71.38
2024-02-08T17:25:43.245Z,71.89
2024-02-08T17:28:22.465Z,73.26
2024-02-08T17:31:10.188Z,73.13
2024-02-08T17:33:48.026Z,73.87
2024-02-08T17:36:32.513Z,75.16
2024-02-08T17:40:22.235Z,74.59
2024-02-08T17:48:00.243Z,78.47
2024-02-08T17:50:06.006Z,78.78
2024-02-08T17:52:39.170Z,79.55
2024-02-08T17:55:08.881Z,80.12
2024-02-08T17:57:43.141Z,80.61
2024-02-08T18:00:13.774Z,80.32
2024-02-08T18:02:44.577Z,80.77
2024-02-08T18:05:16.114Z,79.96
2024-02-08T18:07:45.654Z,81.38
2024-02-08T18:10:18.913Z,80.88
2024-02-08T18:12:53.435Z,80.64
2024-02-08T18:15:25.647Z,80.58
2024-02-08T18:17:56.636Z,81.63
2024-02-08T18:20:31.190Z,81.74
2024-02-08T18:23:03.608Z,81.82
2024-02-08T18:25:32.590Z,81.85
2024-02-08T18:28:10.606Z,82.50
2024-02-08T18:30:39.392Z,82.47
2024-02-08T18:33:09.904Z,83.04
2024-02-08T18:35:39.750Z,82.31
2024-02-08T18:38:09.593Z,83.19
2024-02-08T18:40:39.456Z,83.10
2024-02-08T18:43:08.140Z,82.67
2024-02-08T18:45:38.646Z,82.71
2024-02-08T18:48:12.315Z,83.59
2024-02-08T18:50:44.384Z,83.63
2024-02-08T18:53:13.967Z,84.31
2024-02-08T18:55:46.383Z,82.96
2024-02-08T18:58:18.085Z,83.60
2024-02-08T19:00:50.616Z,84.09
2024-02-08T19:03:21.497Z,83.77
2024-02-08T19:05:51.473Z,84.10
2024-02-08T19:08:20.782Z,83.98
2024-02-08T19:10:52.513Z,84.74
2024-02-08T19:13:27.024Z,83.90
2024-02-08T19:15:56.940Z,84.43
2024-02-08T19:18:27.984Z,84.53
2024-02-08T19:21:02.206Z,85.15
2024-02-08T19:23:30.188Z,84.16
2024-02-08T19:25:59.647Z,84.78
2024-02-08T19:28:27.541Z,85.23
2024-02-08T19:30:57.031Z,85.44
2024-02-08T19:33:26.610Z,86.00
2024-02-08T19:35:56.673Z,86.19
2024-02-08T19:38:27.573Z,85.91
2024-02-08T19:40:56.605Z,85.48
2024-02-08T19:43:27.538Z,85.58
2024-02-08T19:45:55.901Z,85.14
2024-02-08T19:48:26.574Z,85.12
2024-02-08T19:50:55.003Z,85.02
2024-02-08T19:53:29.695Z,85.15
2024-02-08T19:55:59.200Z,84.37
2024-02-08T19:58:29.475Z,85.20
2024-02-08T20:01:00.115Z,85.25
2024-02-08T20:03:28.899Z,85.21
2024-02-08T20:06:00.571Z,85.69
2024-02-08T20:08:30.775Z,85.96
2024-02-08T20:11:00.064Z,84.92
2024-02-08T20:13:31.121Z,85.48
2024-02-08T20:16:00.372Z,85.99
2024-02-08T20:18:28.309Z,86.35
2024-02-08T20:20:59.602Z,85.42
2024-02-08T20:23:33.151Z,85.64
2024-02-08T20:26:09.326Z,84.85
2024-02-08T20:28:37.939Z,85.01
2024-02-08T20:31:08.679Z,85.00
2024-02-08T20:33:38.917Z,85.02
2024-02-08T20:36:09.872Z,84.79
2024-02-08T20:38:38.651Z,85.37
2024-02-08T20:41:11.806Z,85.53
2024-02-08T20:43:49.317Z,85.04
2024-02-08T20:46:17.931Z,85.40
2024-02-08T20:48:45.810Z,85.03
2024-02-08T20:51:17.027Z,85.61
2024-02-08T20:53:44.779Z,87.17
2024-02-08T20:56:23.798Z,86.19
2024-02-08T20:58:52.396Z,86.38
2024-02-08T21:01:20.260Z,86.08
2024-02-08T21:03:48.245Z,85.75
2024-02-08T21:06:16.097Z,85.74
2024-02-08T21:08:44.248Z,86.50
2024-02-08T21:11:13.635Z,86.49
2024-02-08T21:13:49.373Z,85.83
2024-02-08T21:16:21.092Z,85.92
2024-02-08T21:18:49.499Z,86.82
2024-02-08T21:21:17.494Z,86.60
2024-02-08T21:23:46.596Z,86.59
2024-02-08T21:26:17.067Z,85.99
2024-02-08T21:28:48.099Z,86.31
2024-02-08T21:31:19.244Z,86.47
2024-02-08T21:33:48.964Z,86.74
2024-02-08T21:36:16.911Z,86.86
2024-02-08T21:38:47.886Z,87.35
2024-02-08T21:41:17.048Z,87.09
2024-02-08T21:43:48.937Z,87.26
2024-02-08T21:46:18.704Z,87.32
2024-02-08T21:48:47.386Z,87.28
2024-02-08T21:51:16.920Z,87.18
2024-02-08T21:53:44.940Z,87.39
2024-02-08T21:56:14.061Z,87.42
2024-02-08T21:58:44.886Z,87.67
2024-02-08T22:04:00.603Z,87.28
2024-02-08T22:06:28.890Z,87.77
2024-02-08T22:08:58.630Z,87.44
2024-02-08T22:11:26.552Z,87.62
2024-02-08T22:13:57.866Z,87.75
2024-02-08T22:16:25.760Z,88.12
2024-02-08T22:18:54.653Z,87.49
2024-02-08T22:21:23.132Z,87.02
2024-02-08T22:23:52.038Z,86.75
2024-02-08T22:26:20.110Z,86.60
2024-02-08T22:28:48.923Z,87.80
2024-02-08T22:31:18.268Z,87.77
2024-02-08T22:33:46.094Z,88.33
2024-02-08T22:36:17.336Z,87.36
2024-02-08T22:38:47.040Z,87.67
2024-02-08T22:41:14.936Z,87.75
2024-02-08T22:43:43.024Z,87.95
2024-02-08T22:46:10.996Z,88.18
2024-02-08T22:48:40.397Z,87.79
2024-02-08T22:51:09.953Z,87.37
2024-02-08T22:53:39.823Z,87.50
2024-02-08T22:56:08.211Z,87.51
2024-02-08T22:58:36.300Z,86.45
2024-02-08T23:01:24.475Z,85.79
2024-02-08T23:03:54.066Z,86.84
2024-02-08T23:06:22.810Z,86.11
2024-02-08T23:08:50.722Z,86.47
2024-02-08T23:11:18.651Z,86.00
2024-02-08T23:13:48.239Z,86.59
2024-02-08T23:16:19.195Z,86.50
2024-02-08T23:18:49.819Z,86.71
2024-02-08T23:21:25.819Z,86.59
2024-02-08T23:23:54.294Z,86.11
2024-02-08T23:26:22.642Z,86.12
2024-02-08T23:28:51.190Z,86.06
2024-02-08T23:31:19.781Z,86.88
2024-02-08T23:33:47.752Z,86.64
2024-02-08T23:36:15.814Z,86.47
2024-02-08T23:38:45.650Z,86.92
2024-02-08T23:41:14.849Z,86.65
2024-02-08T23:43:42.920Z,86.32
2024-02-08T23:46:10.765Z,86.63
2024-02-08T23:48:38.888Z,86.80
2024-02-08T23:51:07.027Z,86.48
2024-02-08T23:53:34.804Z,87.29
2024-02-08T23:56:04.788Z,87.62
2024-02-08T23:58:32.621Z,86.30
